sensor_id;sensor_type;location;lat;lon;timestamp;temperature;humidity
35491;DHT22;21605;52.068;20.806;2023-10-08T00:01:16;11.50;99.90
35491;DHT22;21605;52.068;20.806;2023-10-08T00:03:43;11.50;99.90
35491;DHT22;21605;52.068;20.806;2023-10-08T00:06:17;11.50;99.90
35491;DHT22;21605;52.068;20.806;2023-10-08T00:08:45;11.50;99.90
35491;DHT22;21605;52.068;20.806;2023-10-08T00:11:10;11.50;99.90
35491;DHT22;21605;52.068;20.806;2023-10-08T00:13:42;11.50;99.90
35491;DHT22;21605;52.068;20.806;2023-10-08T00:16:09;11.50;99.90
35491;DHT22;21605;52.068;20.806;2023-10-08T00:18:44;11.50;99.90
35491;DHT22;21605;52.068;20.806;2023-10-08T00:21:17;11.50;99.90
35491;DHT22;21605;52.068;20.806;2023-10-08T00:23:48;11.50;99.90
35491;DHT22;21605;52.068;20.806;2023-10-08T00:26:26;11.50;99.90
35491;DHT22;21605;52.068;20.806;2023-10-08T00:29:03;11.50;99.90
35491;DHT22;21605;52.068;20.806;2023-10-08T00:31:33;11.40;99.90
35491;DHT22;21605;52.068;20.806;2023-10-08T00:34:06;11.40;99.90
35491;DHT22;21605;52.068;20.806;2023-10-08T00:36:34;11.40;99.90
35491;DHT22;21605;52.068;20.806;2023-10-08T00:39:00;11.40;99.90
35491;DHT22;21605;52.068;20.806;2023-10-08T00:41:26;11.40;99.90
35491;DHT22;21605;52.068;20.806;2023-10-08T00:43:57;11.40;99.90
35491;DHT22;21605;52.068;20.806;2023-10-08T00:46:25;11.30;99.90
35491;DHT22;21605;52.068;20.806;2023-10-08T00:49:00;11.20;99.90
35491;DHT22;21605;52.068;20.806;2023-10-08T00:51:45;11.20;99.90
35491;DHT22;21605;52.068;20.806;2023-10-08T00:54:12;11.20;99.90
35491;DHT22;21605;52.068;20.806;2023-10-08T00:56:46;11.20;99.90
35491;DHT22;21605;52.068;20.806;2023-10-08T00:59:14;11.10;99.90
35491;DHT22;21605;52.068;20.806;2023-10-08T01:01:45;11.10;99.90
35491;DHT22;21605;52.068;20.806;2023-10-08T01:04:19;11.00;99.90
35491;DHT22;21605;52.068;20.806;2023-10-08T01:06:51;11.00;99.90
35491;DHT22;21605;52.068;20.806;2023-10-08T01:09:24;11.00;99.90
35491;DHT22;21605;52.068;20.806;2023-10-08T01:12:21;11.00;99.90
35491;DHT22;21605;52.068;20.806;2023-10-08T01:14:53;10.90;99.90
35491;DHT22;21605;52.068;20.806;2023-10-08T01:17:23;10.90;99.90
35491;DHT22;21605;52.068;20.806;2023-10-08T01:19:53;10.90;99.90
35491;DHT22;21605;52.068;20.806;2023-10-08T01:22:22;10.90;99.90
35491;DHT22;21605;52.068;20.806;2023-10-08T01:24:48;10.90;99.90
35491;DHT22;21605;52.068;20.806;2023-10-08T01:27:18;10.90;99.90
35491;DHT22;21605;52.068;20.806;2023-10-08T01:29:53;10.90;99.90
35491;DHT22;21605;52.068;20.806;2023-10-08T01:32:22;10.90;99.90
35491;DHT22;21605;52.068;20.806;2023-10-08T01:34:49;10.90;99.90
35491;DHT22;21605;52.068;20.806;2023-10-08T01:37:18;10.90;99.90
35491;DHT22;21605;52.068;20.806;2023-10-08T01:39:49;10.90;99.90
35491;DHT22;21605;52.068;20.806;2023-10-08T01:42:18;10.90;99.90
35491;DHT22;21605;52.068;20.806;2023-10-08T01:44:49;10.90;99.90
35491;DHT22;21605;52.068;20.806;2023-10-08T01:47:20;10.90;99.90
35491;DHT22;21605;52.068;20.806;2023-10-08T01:49:56;10.90;99.90
35491;DHT22;21605;52.068;20.806;2023-10-08T01:52:30;11.00;99.90
35491;DHT22;21605;52.068;20.806;2023-10-08T01:54:56;11.00;99.90
35491;DHT22;21605;52.068;20.806;2023-10-08T01:57:23;11.00;99.90
35491;DHT22;21605;52.068;20.806;2023-10-08T01:59:58;11.00;99.90
35491;DHT22;21605;52.068;20.806;2023-10-08T02:02:23;11.00;99.90
35491;DHT22;21605;52.068;20.806;2023-10-08T02:04:50;11.00;99.90
35491;DHT22;21605;52.068;20.806;2023-10-08T02:07:16;11.00;99.90
35491;DHT22;21605;52.068;20.806;2023-10-08T02:09:50;11.00;99.90
35491;DHT22;21605;52.068;20.806;2023-10-08T02:12:16;11.00;99.90
35491;DHT22;21605;52.068;20.806;2023-10-08T02:14:50;11.10;99.90
35491;DHT22;21605;52.068;20.806;2023-10-08T02:17:16;11.10;99.90
35491;DHT22;21605;52.068;20.806;2023-10-08T02:19:48;11.00;99.90
35491;DHT22;21605;52.068;20.806;2023-10-08T02:22:13;11.10;99.90
35491;DHT22;21605;52.068;20.806;2023-10-08T02:24:40;11.10;99.90
35491;DHT22;21605;52.068;20.806;2023-10-08T02:27:06;11.10;99.90
35491;DHT22;21605;52.068;20.806;2023-10-08T02:29:33;11.10;99.90
35491;DHT22;21605;52.068;20.806;2023-10-08T02:31:59;11.10;99.90
35491;DHT22;21605;52.068;20.806;2023-10-08T02:34:25;11.10;99.90
35491;DHT22;21605;52.068;20.806;2023-10-08T02:36:52;11.10;99.90
35491;DHT22;21605;52.068;20.806;2023-10-08T02:39:17;11.10;99.90
35491;DHT22;21605;52.068;20.806;2023-10-08T02:41:53;11.10;99.90
35491;DHT22;21605;52.068;20.806;2023-10-08T02:44:22;11.10;99.90
35491;DHT22;21605;52.068;20.806;2023-10-08T02:46:56;11.10;99.90
35491;DHT22;21605;52.068;20.806;2023-10-08T02:49:22;11.10;99.90
35491;DHT22;21605;52.068;20.806;2023-10-08T02:51:54;11.10;99.90
35491;DHT22;21605;52.068;20.806;2023-10-08T02:54:21;11.10;99.90
35491;DHT22;21605;52.068;20.806;2023-10-08T02:56:58;11.10;99.90
35491;DHT22;21605;52.068;20.806;2023-10-08T02:59:49;11.10;99.90
35491;DHT22;21605;52.068;20.806;2023-10-08T03:02:14;11.10;99.90
35491;DHT22;21605;52.068;20.806;2023-10-08T03:04:51;11.10;99.90
35491;DHT22;21605;52.068;20.806;2023-10-08T03:07:18;11.10;99.90
35491;DHT22;21605;52.068;20.806;2023-10-08T03:09:53;11.10;99.90
35491;DHT22;21605;52.068;20.806;2023-10-08T03:12:38;11.10;99.90
35491;DHT22;21605;52.068;20.806;2023-10-08T03:15:05;11.10;99.90
35491;DHT22;21605;52.068;20.806;2023-10-08T03:17:53;11.10;99.90
35491;DHT22;21605;52.068;20.806;2023-10-08T03:20:20;11.10;99.90
35491;DHT22;21605;52.068;20.806;2023-10-08T03:22:58;11.10;99.90
35491;DHT22;21605;52.068;20.806;2023-10-08T03:25:23;11.10;99.90
35491;DHT22;21605;52.068;20.806;2023-10-08T03:27:52;11.10;99.90
35491;DHT22;21605;52.068;20.806;2023-10-08T03:30:19;11.10;99.90
35491;DHT22;21605;52.068;20.806;2023-10-08T03:32:54;11.10;99.90
35491;DHT22;21605;52.068;20.806;2023-10-08T03:35:21;11.10;99.90
35491;DHT22;21605;52.068;20.806;2023-10-08T03:37:53;11.10;99.90
35491;DHT22;21605;52.068;20.806;2023-10-08T03:40:20;11.10;99.90
35491;DHT22;21605;52.068;20.806;2023-10-08T03:42:55;11.10;99.90
35491;DHT22;21605;52.068;20.806;2023-10-08T03:45:22;11.10;99.90
35491;DHT22;21605;52.068;20.806;2023-10-08T03:48:06;11.10;99.90
35491;DHT22;21605;52.068;20.806;2023-10-08T03:50:36;11.00;99.90
35491;DHT22;21605;52.068;20.806;2023-10-08T03:53:23;11.00;99.90
35491;DHT22;21605;52.068;20.806;2023-10-08T03:55:53;11.00;99.90
35491;DHT22;21605;52.068;20.806;2023-10-08T03:58:20;11.00;99.90
35491;DHT22;21605;52.068;20.806;2023-10-08T04:00:57;11.00;99.90
35491;DHT22;21605;52.068;20.806;2023-10-08T04:03:34;11.00;99.90
35491;DHT22;21605;52.068;20.806;2023-10-08T04:06:27;11.00;99.90
35491;DHT22;21605;52.068;20.806;2023-10-08T04:08:59;11.00;99.90
35491;DHT22;21605;52.068;20.806;2023-10-08T04:11:35;11.00;99.90
35491;DHT22;21605;52.068;20.806;2023-10-08T04:14:01;10.90;99.90
35491;DHT22;21605;52.068;20.806;2023-10-08T04:16:28;10.90;99.90
35491;DHT22;21605;52.068;20.806;2023-10-08T04:18:55;10.90;99.90
35491;DHT22;21605;52.068;20.806;2023-10-08T04:21:28;10.90;99.90
35491;DHT22;21605;52.068;20.806;2023-10-08T04:23:54;10.80;99.90
35491;DHT22;21605;52.068;20.806;2023-10-08T04:26:24;10.80;99.90
35491;DHT22;21605;52.068;20.806;2023-10-08T04:29:14;10.80;99.90
35491;DHT22;21605;52.068;20.806;2023-10-08T04:31:42;10.80;99.90
35491;DHT22;21605;52.068;20.806;2023-10-08T04:34:26;10.70;99.90
35491;DHT22;21605;52.068;20.806;2023-10-08T04:36:59;10.70;99.90
35491;DHT22;21605;52.068;20.806;2023-10-08T04:39:29;10.70;99.90
35491;DHT22;21605;52.068;20.806;2023-10-08T04:41:59;10.60;99.90
35491;DHT22;21605;52.068;20.806;2023-10-08T04:44:31;10.60;99.90
35491;DHT22;21605;52.068;20.806;2023-10-08T04:46:57;10.60;99.90
35491;DHT22;21605;52.068;20.806;2023-10-08T04:49:30;10.50;99.90
35491;DHT22;21605;52.068;20.806;2023-10-08T04:52:00;10.40;99.90
35491;DHT22;21605;52.068;20.806;2023-10-08T04:54:30;10.40;99.90
35491;DHT22;21605;52.068;20.806;2023-10-08T04:57:00;10.40;99.90
35491;DHT22;21605;52.068;20.806;2023-10-08T04:59:27;10.30;99.90
35491;DHT22;21605;52.068;20.806;2023-10-08T05:02:02;10.20;99.90
35491;DHT22;21605;52.068;20.806;2023-10-08T05:04:49;10.20;99.90
35491;DHT22;21605;52.068;20.806;2023-10-08T05:07:20;10.20;99.90
35491;DHT22;21605;52.068;20.806;2023-10-08T05:10:04;10.00;99.90
35491;DHT22;21605;52.068;20.806;2023-10-08T05:12:33;10.00;99.90
35491;DHT22;21605;52.068;20.806;2023-10-08T05:15:17;9.90;99.90
35491;DHT22;21605;52.068;20.806;2023-10-08T05:17:56;9.90;99.90
35491;DHT22;21605;52.068;20.806;2023-10-08T05:20:34;9.80;99.90
35491;DHT22;21605;52.068;20.806;2023-10-08T05:23:24;9.80;99.90
35491;DHT22;21605;52.068;20.806;2023-10-08T05:25:59;9.70;99.90
35491;DHT22;21605;52.068;20.806;2023-10-08T05:28:35;9.60;99.90
35491;DHT22;21605;52.068;20.806;2023-10-08T05:31:08;9.60;99.90
35491;DHT22;21605;52.068;20.806;2023-10-08T05:33:57;9.60;99.90
35491;DHT22;21605;52.068;20.806;2023-10-08T05:36:41;9.50;99.90
35491;DHT22;21605;52.068;20.806;2023-10-08T05:39:45;9.50;99.90
35491;DHT22;21605;52.068;20.806;2023-10-08T05:42:21;9.40;99.90
35491;DHT22;21605;52.068;20.806;2023-10-08T05:44:57;9.40;99.90
35491;DHT22;21605;52.068;20.806;2023-10-08T05:47:34;9.30;99.90
35491;DHT22;21605;52.068;20.806;2023-10-08T05:50:09;9.30;99.90
35491;DHT22;21605;52.068;20.806;2023-10-08T05:52:58;9.30;99.90
35491;DHT22;21605;52.068;20.806;2023-10-08T05:55:30;9.30;99.90
35491;DHT22;21605;52.068;20.806;2023-10-08T05:58:06;9.20;99.90
35491;DHT22;21605;52.068;20.806;2023-10-08T06:00:45;9.20;99.90
35491;DHT22;21605;52.068;20.806;2023-10-08T06:03:32;9.20;99.90
35491;DHT22;21605;52.068;20.806;2023-10-08T06:06:08;9.20;99.90
35491;DHT22;21605;52.068;20.806;2023-10-08T06:08:40;9.20;99.90
35491;DHT22;21605;52.068;20.806;2023-10-08T06:11:36;9.10;99.90
35491;DHT22;21605;52.068;20.806;2023-10-08T06:14:23;9.10;99.90
35491;DHT22;21605;52.068;20.806;2023-10-08T06:17:14;9.10;99.90
35491;DHT22;21605;52.068;20.806;2023-10-08T06:20:08;9.10;99.90
35491;DHT22;21605;52.068;20.806;2023-10-08T06:22:42;9.10;99.90
35491;DHT22;21605;52.068;20.806;2023-10-08T06:25:08;9.10;99.90
35491;DHT22;21605;52.068;20.806;2023-10-08T06:27:42;9.10;99.90
35491;DHT22;21605;52.068;20.806;2023-10-08T06:30:11;9.10;99.90
35491;DHT22;21605;52.068;20.806;2023-10-08T06:32:43;9.10;99.90
35491;DHT22;21605;52.068;20.806;2023-10-08T06:35:10;9.10;99.90
35491;DHT22;21605;52.068;20.806;2023-10-08T06:37:43;10.00;99.90
35491;DHT22;21605;52.068;20.806;2023-10-08T06:40:11;9.30;99.90
35491;DHT22;21605;52.068;20.806;2023-10-08T06:43:05;9.40;99.90
35491;DHT22;21605;52.068;20.806;2023-10-08T06:45:44;9.50;99.90
35491;DHT22;21605;52.068;20.806;2023-10-08T06:48:12;9.80;99.90
35491;DHT22;21605;52.068;20.806;2023-10-08T06:50:46;9.80;99.90
35491;DHT22;21605;52.068;20.806;2023-10-08T06:53:13;9.80;99.90
35491;DHT22;21605;52.068;20.806;2023-10-08T06:55:46;9.70;99.90
35491;DHT22;21605;52.068;20.806;2023-10-08T06:58:14;9.70;99.90
35491;DHT22;21605;52.068;20.806;2023-10-08T07:00:40;9.70;99.90
35491;DHT22;21605;52.068;20.806;2023-10-08T07:03:13;9.70;99.90
35491;DHT22;21605;52.068;20.806;2023-10-08T07:05:48;9.60;99.90
35491;DHT22;21605;52.068;20.806;2023-10-08T07:08:30;9.60;99.90
35491;DHT22;21605;52.068;20.806;2023-10-08T07:11:02;9.60;99.90
35491;DHT22;21605;52.068;20.806;2023-10-08T07:13:32;9.60;99.90
35491;DHT22;21605;52.068;20.806;2023-10-08T07:15:58;9.60;99.90
35491;DHT22;21605;52.068;20.806;2023-10-08T07:18:25;9.60;99.90
35491;DHT22;21605;52.068;20.806;2023-10-08T07:21:00;9.70;99.90
35491;DHT22;21605;52.068;20.806;2023-10-08T07:23:27;9.70;99.90
35491;DHT22;21605;52.068;20.806;2023-10-08T07:26:03;9.60;99.90
35491;DHT22;21605;52.068;20.806;2023-10-08T07:28:39;9.70;99.90
35491;DHT22;21605;52.068;20.806;2023-10-08T07:31:16;9.70;99.30
35491;DHT22;21605;52.068;20.806;2023-10-08T07:33:43;9.70;99.90
35491;DHT22;21605;52.068;20.806;2023-10-08T07:36:10;9.70;99.10
35491;DHT22;21605;52.068;20.806;2023-10-08T07:38:43;9.70;99.60
35491;DHT22;21605;52.068;20.806;2023-10-08T07:41:12;9.80;99.90
35491;DHT22;21605;52.068;20.806;2023-10-08T07:43:40;9.80;99.30
35491;DHT22;21605;52.068;20.806;2023-10-08T07:46:10;9.80;99.30
35491;DHT22;21605;52.068;20.806;2023-10-08T07:48:36;9.80;99.90
35491;DHT22;21605;52.068;20.806;2023-10-08T07:51:07;9.90;98.90
35491;DHT22;21605;52.068;20.806;2023-10-08T07:53:33;9.90;98.60
35491;DHT22;21605;52.068;20.806;2023-10-08T07:56:07;10.00;98.20
35491;DHT22;21605;52.068;20.806;2023-10-08T07:58:34;10.00;98.70
35491;DHT22;21605;52.068;20.806;2023-10-08T08:01:04;10.00;98.50
35491;DHT22;21605;52.068;20.806;2023-10-08T08:03:34;10.00;98.90
35491;DHT22;21605;52.068;20.806;2023-10-08T08:06:03;10.00;98.80
35491;DHT22;21605;52.068;20.806;2023-10-08T08:08:32;10.10;98.20
35491;DHT22;21605;52.068;20.806;2023-10-08T08:11:00;10.10;98.60
35491;DHT22;21605;52.068;20.806;2023-10-08T08:13:35;10.10;98.00
35491;DHT22;21605;52.068;20.806;2023-10-08T08:16:01;10.20;97.40
35491;DHT22;21605;52.068;20.806;2023-10-08T08:18:42;10.20;97.00
35491;DHT22;21605;52.068;20.806;2023-10-08T08:21:12;10.50;97.10
35491;DHT22;21605;52.068;20.806;2023-10-08T08:23:47;11.10;96.40
35491;DHT22;21605;52.068;20.806;2023-10-08T08:26:15;12.00;95.90
35491;DHT22;21605;52.068;20.806;2023-10-08T08:29:04;13.10;96.90
35491;DHT22;21605;52.068;20.806;2023-10-08T08:31:34;14.40;95.50
35491;DHT22;21605;52.068;20.806;2023-10-08T08:34:12;15.60;93.60
35491;DHT22;21605;52.068;20.806;2023-10-08T08:36:45;16.40;88.80
35491;DHT22;21605;52.068;20.806;2023-10-08T08:39:17;17.20;84.70
35491;DHT22;21605;52.068;20.806;2023-10-08T08:42:03;18.00;80.80
35491;DHT22;21605;52.068;20.806;2023-10-08T08:44:35;18.60;77.30
35491;DHT22;21605;52.068;20.806;2023-10-08T08:47:05;19.30;70.60
35491;DHT22;21605;52.068;20.806;2023-10-08T08:49:36;19.70;71.80
35491;DHT22;21605;52.068;20.806;2023-10-08T08:52:06;19.60;62.40
35491;DHT22;21605;52.068;20.806;2023-10-08T08:54:32;19.30;62.20
35491;DHT22;21605;52.068;20.806;2023-10-08T08:57:07;19.60;68.00
35491;DHT22;21605;52.068;20.806;2023-10-08T08:59:44;19.40;63.80
35491;DHT22;21605;52.068;20.806;2023-10-08T09:02:13;18.80;62.50
35491;DHT22;21605;52.068;20.806;2023-10-08T09:04:40;18.60;64.20
35491;DHT22;21605;52.068;20.806;2023-10-08T09:07:06;18.30;66.90
35491;DHT22;21605;52.068;20.806;2023-10-08T09:09:34;18.10;65.30
35491;DHT22;21605;52.068;20.806;2023-10-08T09:12:05;17.90;69.50
35491;DHT22;21605;52.068;20.806;2023-10-08T09:14:33;17.40;66.00
35491;DHT22;21605;52.068;20.806;2023-10-08T09:17:08;17.20;65.80
35491;DHT22;21605;52.068;20.806;2023-10-08T09:19:38;17.00;64.20
35491;DHT22;21605;52.068;20.806;2023-10-08T09:22:08;16.80;61.70
35491;DHT22;21605;52.068;20.806;2023-10-08T09:24:35;16.80;64.30
35491;DHT22;21605;52.068;20.806;2023-10-08T09:27:29;17.10;67.60
35491;DHT22;21605;52.068;20.806;2023-10-08T09:30:05;17.60;65.30
35491;DHT22;21605;52.068;20.806;2023-10-08T09:32:34;18.10;64.70
35491;DHT22;21605;52.068;20.806;2023-10-08T09:35:09;19.00;67.20
35491;DHT22;21605;52.068;20.806;2023-10-08T09:37:36;19.80;64.60
35491;DHT22;21605;52.068;20.806;2023-10-08T09:40:08;20.20;60.80
35491;DHT22;21605;52.068;20.806;2023-10-08T09:42:37;20.40;62.00
35491;DHT22;21605;52.068;20.806;2023-10-08T09:45:07;21.00;61.70
35491;DHT22;21605;52.068;20.806;2023-10-08T09:47:38;21.20;58.50
35491;DHT22;21605;52.068;20.806;2023-10-08T09:50:07;21.20;58.60
35491;DHT22;21605;52.068;20.806;2023-10-08T09:53:11;21.00;52.80
35491;DHT22;21605;52.068;20.806;2023-10-08T09:56:12;20.90;56.90
35491;DHT22;21605;52.068;20.806;2023-10-08T09:58:39;21.00;56.10
35491;DHT22;21605;52.068;20.806;2023-10-08T10:01:06;21.10;54.90
35491;DHT22;21605;52.068;20.806;2023-10-08T10:03:32;21.30;54.80
35491;DHT22;21605;52.068;20.806;2023-10-08T10:06:15;21.40;59.60
35491;DHT22;21605;52.068;20.806;2023-10-08T10:08:45;21.00;54.40
35491;DHT22;21605;52.068;20.806;2023-10-08T10:11:11;21.00;54.30
35491;DHT22;21605;52.068;20.806;2023-10-08T10:13:45;21.30;55.30
35491;DHT22;21605;52.068;20.806;2023-10-08T10:16:17;21.50;51.40
35491;DHT22;21605;52.068;20.806;2023-10-08T10:18:48;21.80;51.30
35491;DHT22;21605;52.068;20.806;2023-10-08T10:26:31;21.80;52.60
35491;DHT22;21605;52.068;20.806;2023-10-08T10:29:24;22.00;50.80
35491;DHT22;21605;52.068;20.806;2023-10-08T10:31:53;22.30;51.80
35491;DHT22;21605;52.068;20.806;2023-10-08T10:34:26;22.00;46.90
35491;DHT22;21605;52.068;20.806;2023-10-08T10:37:11;22.40;51.00
35491;DHT22;21605;52.068;20.806;2023-10-08T10:39:55;22.80;51.30
35491;DHT22;21605;52.068;20.806;2023-10-08T10:42:34;23.10;53.00
35491;DHT22;21605;52.068;20.806;2023-10-08T10:45:14;23.30;53.00
35491;DHT22;21605;52.068;20.806;2023-10-08T10:48:13;23.50;49.40
35491;DHT22;21605;52.068;20.806;2023-10-08T10:50:51;23.20;47.80
35491;DHT22;21605;52.068;20.806;2023-10-08T10:53:39;23.10;49.60
35491;DHT22;21605;52.068;20.806;2023-10-08T10:56:34;23.40;52.20
35491;DHT22;21605;52.068;20.806;2023-10-08T10:59:10;23.00;44.40
35491;DHT22;21605;52.068;20.806;2023-10-08T11:01:52;22.60;46.00
35491;DHT22;21605;52.068;20.806;2023-10-08T11:04:21;22.80;48.40
35491;DHT22;21605;52.068;20.806;2023-10-08T11:06:55;22.50;51.30
35491;DHT22;21605;52.068;20.806;2023-10-08T11:09:27;22.10;48.40
35491;DHT22;21605;52.068;20.806;2023-10-08T11:12:10;21.60;47.00
35491;DHT22;21605;52.068;20.806;2023-10-08T11:14:41;21.30;50.50
35491;DHT22;21605;52.068;20.806;2023-10-08T11:17:16;20.70;47.20
35491;DHT22;21605;52.068;20.806;2023-10-08T11:19:43;20.30;47.90
35491;DHT22;21605;52.068;20.806;2023-10-08T11:22:12;20.10;51.50
35491;DHT22;21605;52.068;20.806;2023-10-08T11:24:42;19.60;47.50
35491;DHT22;21605;52.068;20.806;2023-10-08T11:27:12;19.30;48.90
35491;DHT22;21605;52.068;20.806;2023-10-08T11:29:46;19.20;50.70
35491;DHT22;21605;52.068;20.806;2023-10-08T11:32:12;19.10;50.20
35491;DHT22;21605;52.068;20.806;2023-10-08T11:34:39;18.50;47.20
35491;DHT22;21605;52.068;20.806;2023-10-08T11:37:13;18.20;49.30
35491;DHT22;21605;52.068;20.806;2023-10-08T11:39:48;17.60;48.00
35491;DHT22;21605;52.068;20.806;2023-10-08T11:42:14;17.30;50.00
35491;DHT22;21605;52.068;20.806;2023-10-08T11:44:58;17.20;52.90
35491;DHT22;21605;52.068;20.806;2023-10-08T11:47:27;17.00;52.20
35491;DHT22;21605;52.068;20.806;2023-10-08T11:50:01;16.60;51.30
35491;DHT22;21605;52.068;20.806;2023-10-08T11:52:47;16.30;51.50
35491;DHT22;21605;52.068;20.806;2023-10-08T11:55:15;16.00;51.30
35491;DHT22;21605;52.068;20.806;2023-10-08T11:57:48;15.80;52.00
35491;DHT22;21605;52.068;20.806;2023-10-08T12:00:16;15.80;54.80
35491;DHT22;21605;52.068;20.806;2023-10-08T12:02:46;15.70;55.60
35491;DHT22;21605;52.068;20.806;2023-10-08T12:05:15;15.60;54.10
35491;DHT22;21605;52.068;20.806;2023-10-08T12:07:52;15.50;55.10
35491;DHT22;21605;52.068;20.806;2023-10-08T12:10:18;15.40;54.20
35491;DHT22;21605;52.068;20.806;2023-10-08T12:12:51;15.20;53.30
35491;DHT22;21605;52.068;20.806;2023-10-08T12:15:22;14.80;52.20
35491;DHT22;21605;52.068;20.806;2023-10-08T12:17:52;14.70;54.90
35491;DHT22;21605;52.068;20.806;2023-10-08T12:20:37;14.60;54.30
35491;DHT22;21605;52.068;20.806;2023-10-08T12:23:16;14.50;54.60
35491;DHT22;21605;52.068;20.806;2023-10-08T12:26:15;14.50;55.30
35491;DHT22;21605;52.068;20.806;2023-10-08T12:28:47;14.30;53.70
35491;DHT22;21605;52.068;20.806;2023-10-08T12:31:25;14.20;53.40
35491;DHT22;21605;52.068;20.806;2023-10-08T12:33:51;13.90;52.40
35491;DHT22;21605;52.068;20.806;2023-10-08T12:36:25;13.80;53.40
35491;DHT22;21605;52.068;20.806;2023-10-08T12:38:52;13.60;52.60
35491;DHT22;21605;52.068;20.806;2023-10-08T12:41:27;13.60;53.30
35491;DHT22;21605;52.068;20.806;2023-10-08T12:43:53;13.70;54.90
35491;DHT22;21605;52.068;20.806;2023-10-08T12:46:20;13.70;56.20
35491;DHT22;21605;52.068;20.806;2023-10-08T12:48:50;13.70;55.00
35491;DHT22;21605;52.068;20.806;2023-10-08T12:51:25;13.50;54.50
35491;DHT22;21605;52.068;20.806;2023-10-08T12:53:51;13.60;55.80
35491;DHT22;21605;52.068;20.806;2023-10-08T12:56:38;13.60;55.50
35491;DHT22;21605;52.068;20.806;2023-10-08T12:59:16;13.60;54.50
35491;DHT22;21605;52.068;20.806;2023-10-08T13:01:49;13.50;56.30
35491;DHT22;21605;52.068;20.806;2023-10-08T13:04:21;13.60;57.10
35491;DHT22;21605;52.068;20.806;2023-10-08T13:06:52;13.60;57.20
35491;DHT22;21605;52.068;20.806;2023-10-08T13:09:22;13.60;56.10
35491;DHT22;21605;52.068;20.806;2023-10-08T13:11:48;13.60;57.10
35491;DHT22;21605;52.068;20.806;2023-10-08T13:14:18;13.40;55.50
35491;DHT22;21605;52.068;20.806;2023-10-08T13:16:44;13.40;55.80
35491;DHT22;21605;52.068;20.806;2023-10-08T13:19:16;13.40;56.00
35491;DHT22;21605;52.068;20.806;2023-10-08T13:21:44;13.30;55.80
35491;DHT22;21605;52.068;20.806;2023-10-08T13:24:19;13.30;57.90
35491;DHT22;21605;52.068;20.806;2023-10-08T13:26:45;13.30;57.50
35491;DHT22;21605;52.068;20.806;2023-10-08T13:29:18;13.30;56.10
35491;DHT22;21605;52.068;20.806;2023-10-08T13:31:44;13.30;56.50
35491;DHT22;21605;52.068;20.806;2023-10-08T13:34:16;13.40;57.80
35491;DHT22;21605;52.068;20.806;2023-10-08T13:36:42;13.30;56.80
35491;DHT22;21605;52.068;20.806;2023-10-08T13:39:18;13.30;56.90
35491;DHT22;21605;52.068;20.806;2023-10-08T13:41:44;13.20;56.00
35491;DHT22;21605;52.068;20.806;2023-10-08T13:44:18;13.20;56.90
35491;DHT22;21605;52.068;20.806;2023-10-08T13:46:51;13.20;56.80
35491;DHT22;21605;52.068;20.806;2023-10-08T13:49:22;13.10;57.20
35491;DHT22;21605;52.068;20.806;2023-10-08T13:51:48;13.00;56.60
35491;DHT22;21605;52.068;20.806;2023-10-08T13:54:21;13.00;56.90
35491;DHT22;21605;52.068;20.806;2023-10-08T13:56:47;13.00;57.70
35491;DHT22;21605;52.068;20.806;2023-10-08T13:59:18;13.00;57.70
35491;DHT22;21605;52.068;20.806;2023-10-08T14:01:45;12.90;56.40
35491;DHT22;21605;52.068;20.806;2023-10-08T14:04:18;12.90;56.70
35491;DHT22;21605;52.068;20.806;2023-10-08T14:06:51;12.80;56.40
35491;DHT22;21605;52.068;20.806;2023-10-08T14:09:18;12.80;56.40
35491;DHT22;21605;52.068;20.806;2023-10-08T14:11:48;12.70;56.20
35491;DHT22;21605;52.068;20.806;2023-10-08T14:14:19;12.70;56.30
35491;DHT22;21605;52.068;20.806;2023-10-08T14:16:45;12.70;57.20
35491;DHT22;21605;52.068;20.806;2023-10-08T14:19:20;12.70;57.50
35491;DHT22;21605;52.068;20.806;2023-10-08T14:21:48;12.70;57.50
35491;DHT22;21605;52.068;20.806;2023-10-08T14:24:40;12.70;57.60
35491;DHT22;21605;52.068;20.806;2023-10-08T14:27:06;12.60;57.20
35491;DHT22;21605;52.068;20.806;2023-10-08T14:29:50;12.60;56.50
35491;DHT22;21605;52.068;20.806;2023-10-08T14:32:20;12.50;56.00
35491;DHT22;21605;52.068;20.806;2023-10-08T14:34:46;12.50;57.10
35491;DHT22;21605;52.068;20.806;2023-10-08T14:37:21;12.50;56.80
35491;DHT22;21605;52.068;20.806;2023-10-08T14:40:06;12.50;56.90
35491;DHT22;21605;52.068;20.806;2023-10-08T14:42:51;12.50;57.90
35491;DHT22;21605;52.068;20.806;2023-10-08T14:45:29;12.40;56.30
35491;DHT22;21605;52.068;20.806;2023-10-08T14:48:01;12.50;58.40
35491;DHT22;21605;52.068;20.806;2023-10-08T14:50:28;12.40;58.10
35491;DHT22;21605;52.068;20.806;2023-10-08T14:52:56;12.40;57.70
35491;DHT22;21605;52.068;20.806;2023-10-08T14:55:23;12.40;58.50
35491;DHT22;21605;52.068;20.806;2023-10-08T14:57:51;12.30;58.00
35491;DHT22;21605;52.068;20.806;2023-10-08T15:00:24;12.30;57.30
35491;DHT22;21605;52.068;20.806;2023-10-08T15:02:53;12.20;56.40
35491;DHT22;21605;52.068;20.806;2023-10-08T15:05:23;12.20;57.80
35491;DHT22;21605;52.068;20.806;2023-10-08T15:07:52;12.20;58.30
35491;DHT22;21605;52.068;20.806;2023-10-08T15:10:20;12.20;58.70
35491;DHT22;21605;52.068;20.806;2023-10-08T15:12:47;12.10;59.10
35491;DHT22;21605;52.068;20.806;2023-10-08T15:15:21;12.10;58.90
35491;DHT22;21605;52.068;20.806;2023-10-08T15:17:50;12.10;58.90
35491;DHT22;21605;52.068;20.806;2023-10-08T15:20:22;12.00;57.80
35491;DHT22;21605;52.068;20.806;2023-10-08T15:22:49;11.90;58.70
35491;DHT22;21605;52.068;20.806;2023-10-08T15:25:24;11.90;58.40
35491;DHT22;21605;52.068;20.806;2023-10-08T15:27:50;11.80;58.50
35491;DHT22;21605;52.068;20.806;2023-10-08T15:30:21;11.80;57.70
35491;DHT22;21605;52.068;20.806;2023-10-08T15:32:48;11.70;59.10
35491;DHT22;21605;52.068;20.806;2023-10-08T15:35:23;11.70;59.20
35491;DHT22;21605;52.068;20.806;2023-10-08T15:37:50;11.60;59.10
35491;DHT22;21605;52.068;20.806;2023-10-08T15:40:25;11.50;58.50
35491;DHT22;21605;52.068;20.806;2023-10-08T15:42:52;11.50;58.80
35491;DHT22;21605;52.068;20.806;2023-10-08T15:45:19;11.50;59.20
35491;DHT22;21605;52.068;20.806;2023-10-08T15:47:45;11.40;58.90
35491;DHT22;21605;52.068;20.806;2023-10-08T15:50:11;11.40;59.60
35491;DHT22;21605;52.068;20.806;2023-10-08T15:52:37;11.30;59.30
35491;DHT22;21605;52.068;20.806;2023-10-08T15:55:07;11.30;60.10
35491;DHT22;21605;52.068;20.806;2023-10-08T15:57:33;11.30;59.80